sensor_id;sensor_type;location;lat;lon;timestamp;pressure;altitude;pressure_sealevel;temperature;humidity
28344;BME280;15597;50.914;6.638;2023-04-07T00:01:42;100622.81;;;13.46;52.72
28344;BME280;15597;50.914;6.638;2023-04-07T00:04:08;100625.41;;;13.48;52.62
28344;BME280;15597;50.914;6.638;2023-04-07T00:06:34;100624.41;;;13.50;52.88
28344;BME280;15597;50.914;6.638;2023-04-07T00:08:59;100626.13;;;13.51;52.54
28344;BME280;15597;50.914;6.638;2023-04-07T00:11:25;100624.38;;;13.52;53.04
28344;BME280;15597;50.914;6.638;2023-04-07T00:13:50;100633.13;;;13.52;52.98
28344;BME280;15597;50.914;6.638;2023-04-07T00:16:16;100635.75;;;13.52;52.77
28344;BME280;15597;50.914;6.638;2023-04-07T00:18:42;100633.13;;;13.52;52.98
28344;BME280;15597;50.914;6.638;2023-04-07T00:21:07;100632.28;;;13.52;52.75
28344;BME280;15597;50.914;6.638;2023-04-07T00:23:33;100628.75;;;13.51;53.09
28344;BME280;15597;50.914;6.638;2023-04-07T00:25:58;100634.09;;;13.50;53.25
28344;BME280;15597;50.914;6.638;2023-04-07T00:28:24;100639.34;;;13.50;53.79
28344;BME280;15597;50.914;6.638;2023-04-07T00:30:50;100633.22;;;13.49;53.36
28344;BME280;15597;50.914;6.638;2023-04-07T00:33:15;100631.59;;;13.45;53.47
28344;BME280;15597;50.914;6.638;2023-04-07T00:35:41;100636.00;;;13.44;53.24
28344;BME280;15597;50.914;6.638;2023-04-07T00:38:06;100629.03;;;13.43;53.01
28344;BME280;15597;50.914;6.638;2023-04-07T00:40:32;100629.06;;;13.42;53.67
28344;BME280;15597;50.914;6.638;2023-04-07T00:42:57;100633.50;;;13.40;53.90
28344;BME280;15597;50.914;6.638;2023-04-07T00:45:23;100631.03;;;13.35;54.37
28344;BME280;15597;50.914;6.638;2023-04-07T00:47:48;100631.06;;;13.34;54.64
28344;BME280;15597;50.914;6.638;2023-04-07T00:50:14;100623.19;;;13.34;54.34
28344;BME280;15597;50.914;6.638;2023-04-07T00:52:40;100621.34;;;13.36;53.91
28344;BME280;15597;50.914;6.638;2023-04-07T00:55:06;100619.63;;;13.35;54.36
28344;BME280;15597;50.914;6.638;2023-04-07T00:57:32;100626.63;;;13.36;54.09
28344;BME280;15597;50.914;6.638;2023-04-07T00:59:58;100621.34;;;13.36;54.06
28344;BME280;15597;50.914;6.638;2023-04-07T01:02:40;100611.00;;;13.31;54.01
28344;BME280;15597;50.914;6.638;2023-04-07T01:05:15;100609.34;;;13.28;54.70
28344;BME280;15597;50.914;6.638;2023-04-07T01:10:47;100618.22;;;13.24;54.54
28344;BME280;15597;50.914;6.638;2023-04-07T01:13:26;100611.16;;;13.26;54.39
28344;BME280;15597;50.914;6.638;2023-04-07T01:16:03;100614.69;;;13.25;54.69
28344;BME280;15597;50.914;6.638;2023-04-07T01:18:34;100616.38;;;13.28;54.49
28344;BME280;15597;50.914;6.638;2023-04-07T01:21:03;100618.94;;;13.29;54.66
28344;BME280;15597;50.914;6.638;2023-04-07T01:26:25;100618.13;;;13.27;54.55
28344;BME280;15597;50.914;6.638;2023-04-07T01:31:27;100617.19;;;13.30;54.34
28344;BME280;15597;50.914;6.638;2023-04-07T01:33:54;100616.31;;;13.29;54.69
28344;BME280;15597;50.914;6.638;2023-04-07T01:36:21;100625.50;;;13.16;54.79
28344;BME280;15597;50.914;6.638;2023-04-07T01:38:50;100621.06;;;13.17;54.55
28344;BME280;15597;50.914;6.638;2023-04-07T01:41:16;100620.13;;;13.19;54.63
28344;BME280;15597;50.914;6.638;2023-04-07T01:43:44;100621.84;;;13.20;55.08
28344;BME280;15597;50.914;6.638;2023-04-07T01:46:12;100618.41;;;13.18;55.25
28344;BME280;15597;50.914;6.638;2023-04-07T01:48:38;100621.06;;;13.17;55.53
28344;BME280;15597;50.914;6.638;2023-04-07T01:51:05;100622.00;;;13.15;55.69
28344;BME280;15597;50.914;6.638;2023-04-07T01:53:31;100623.78;;;13.15;55.54
28344;BME280;15597;50.914;6.638;2023-04-07T01:55:57;100620.34;;;13.13;55.56
28344;BME280;15597;50.914;6.638;2023-04-07T01:58:23;100611.53;;;13.14;55.50
28344;BME280;15597;50.914;6.638;2023-04-07T02:00:50;100625.50;;;13.16;55.22
28344;BME280;15597;50.914;6.638;2023-04-07T02:03:23;100621.16;;;13.15;55.29
28344;BME280;15597;50.914;6.638;2023-04-07T02:05:54;100624.69;;;13.14;55.45
28344;BME280;15597;50.914;6.638;2023-04-07T02:08:27;100616.84;;;13.12;55.28
28344;BME280;15597;50.914;6.638;2023-04-07T02:10:55;100620.34;;;13.13;55.06
28344;BME280;15597;50.914;6.638;2023-04-07T02:13:22;100623.78;;;13.15;55.08
28344;BME280;15597;50.914;6.638;2023-04-07T02:15:50;100627.22;;;13.17;55.46
28344;BME280;15597;50.914;6.638;2023-04-07T02:18:18;100625.41;;;13.19;55.27
28344;BME280;15597;50.914;6.638;2023-04-07T02:20:44;100626.13;;;13.23;55.50
28344;BME280;15597;50.914;6.638;2023-04-07T02:23:11;100626.09;;;13.24;55.41
28344;BME280;15597;50.914;6.638;2023-04-07T02:25:37;100631.25;;;13.27;56.09
28344;BME280;15597;50.914;6.638;2023-04-07T02:28:03;100624.19;;;13.29;55.34
28344;BME280;15597;50.914;6.638;2023-04-07T02:30:30;100623.28;;;13.30;55.31
28344;BME280;15597;50.914;6.638;2023-04-07T02:32:56;100625.88;;;13.32;55.05
28344;BME280;15597;50.914;6.638;2023-04-07T02:35:22;100636.31;;;13.34;55.38
28344;BME280;15597;50.914;6.638;2023-04-07T02:37:48;100623.19;;;13.34;55.21
28344;BME280;15597;50.914;6.638;2023-04-07T02:40:14;100631.88;;;13.36;54.90
28344;BME280;15597;50.914;6.638;2023-04-07T02:42:40;100631.88;;;13.36;55.80
28344;BME280;15597;50.914;6.638;2023-04-07T02:45:06;100632.75;;;13.36;55.60
28344;BME280;15597;50.914;6.638;2023-04-07T02:47:34;100633.59;;;13.37;55.79
28344;BME280;15597;50.914;6.638;2023-04-07T02:49:59;100631.78;;;13.39;55.26
28344;BME280;15597;50.914;6.638;2023-04-07T02:52:25;100636.13;;;13.40;55.63
28344;BME280;15597;50.914;6.638;2023-04-07T02:54:51;100630.06;;;13.38;55.56
28344;BME280;15597;50.914;6.638;2023-04-07T02:57:20;100638.00;;;13.36;55.55
28344;BME280;15597;50.914;6.638;2023-04-07T02:59:47;100642.38;;;13.36;55.45
28344;BME280;15597;50.914;6.638;2023-04-07T03:02:14;100642.38;;;13.36;55.46
28344;BME280;15597;50.914;6.638;2023-04-07T03:04:39;100639.81;;;13.34;55.74
28344;BME280;15597;50.914;6.638;2023-04-07T03:07:06;100635.50;;;13.32;55.37
28344;BME280;15597;50.914;6.638;2023-04-07T03:09:32;100642.69;;;13.26;55.64
28344;BME280;15597;50.914;6.638;2023-04-07T03:11:57;100643.81;;;13.18;55.70
28344;BME280;15597;50.914;6.638;2023-04-07T03:14:25;100651.06;;;13.11;55.95
28344;BME280;15597;50.914;6.638;2023-04-07T03:16:50;100652.06;;;13.07;56.35
28344;BME280;15597;50.914;6.638;2023-04-07T03:19:16;100653.88;;;13.05;56.13
28344;BME280;15597;50.914;6.638;2023-04-07T03:21:45;100648.63;;;13.05;56.26
28344;BME280;15597;50.914;6.638;2023-04-07T03:24:11;100650.44;;;13.03;55.76
28344;BME280;15597;50.914;6.638;2023-04-07T03:26:37;100648.72;;;13.02;55.67
28344;BME280;15597;50.914;6.638;2023-04-07T03:29:05;100647.00;;;13.00;55.82
28344;BME280;15597;50.914;6.638;2023-04-07T03:31:31;100641.75;;;12.99;56.02
28344;BME280;15597;50.914;6.638;2023-04-07T03:33:57;100641.81;;;12.97;55.91
28344;BME280;15597;50.914;6.638;2023-04-07T03:36:23;100639.22;;;12.96;56.34
28344;BME280;15597;50.914;6.638;2023-04-07T03:38:49;100649.00;;;12.92;56.10
28344;BME280;15597;50.914;6.638;2023-04-07T03:41:16;100649.91;;;12.91;56.14
28344;BME280;15597;50.914;6.638;2023-04-07T03:43:42;100642.03;;;12.91;56.43
28344;BME280;15597;50.914;6.638;2023-04-07T03:46:09;100646.47;;;12.89;55.93
28344;BME280;15597;50.914;6.638;2023-04-07T03:48:35;100648.22;;;12.89;55.78
28344;BME280;15597;50.914;6.638;2023-04-07T03:51:09;100649.13;;;12.88;56.20
28344;BME280;15597;50.914;6.638;2023-04-07T03:53:34;100647.38;;;12.88;55.98
28344;BME280;15597;50.914;6.638;2023-04-07T03:56:10;100649.19;;;12.86;56.03
28344;BME280;15597;50.914;6.638;2023-04-07T03:58:46;100646.56;;;12.86;55.82
28344;BME280;15597;50.914;6.638;2023-04-07T04:01:18;100650.03;;;12.86;55.93
28344;BME280;15597;50.914;6.638;2023-04-07T04:03:48;100657.88;;;12.88;56.20
28344;BME280;15597;50.914;6.638;2023-04-07T04:06:25;100660.50;;;12.88;55.92
28344;BME280;15597;50.914;6.638;2023-04-07T04:08:54;100657.88;;;12.88;55.89
28344;BME280;15597;50.914;6.638;2023-04-07T04:11:20;100657.88;;;12.88;56.01
28344;BME280;15597;50.914;6.638;2023-04-07T04:13:54;100657.91;;;12.86;56.22
28344;BME280;15597;50.914;6.638;2023-04-07T04:16:20;100655.28;;;12.86;55.84
28344;BME280;15597;50.914;6.638;2023-04-07T04:18:47;100657.06;;;12.86;55.71
28344;BME280;15597;50.914;6.638;2023-04-07T04:21:13;100653.63;;;12.84;55.65
28344;BME280;15597;50.914;6.638;2023-04-07T04:23:41;100657.25;;;12.80;55.64
28344;BME280;15597;50.914;6.638;2023-04-07T04:26:07;100657.34;;;12.77;56.11
28344;BME280;15597;50.914;6.638;2023-04-07T04:28:33;100664.41;;;12.73;56.15
28344;BME280;15597;50.914;6.638;2023-04-07T04:31:02;100667.03;;;12.73;56.28
28344;BME280;15597;50.914;6.638;2023-04-07T04:33:31;100669.69;;;12.71;56.18
28344;BME280;15597;50.914;6.638;2023-04-07T04:35:58;100665.31;;;12.72;56.25
28344;BME280;15597;50.914;6.638;2023-04-07T04:38:25;100671.47;;;12.71;56.04
28344;BME280;15597;50.914;6.638;2023-04-07T04:41:04;100678.47;;;12.70;56.22
28344;BME280;15597;50.914;6.638;2023-04-07T04:43:30;100677.56;;;12.71;56.14
28344;BME280;15597;50.914;6.638;2023-04-07T04:45:57;100679.34;;;12.73;56.16
28344;BME280;15597;50.914;6.638;2023-04-07T04:48:25;100685.44;;;12.73;56.34
28344;BME280;15597;50.914;6.638;2023-04-07T04:50:51;100685.44;;;12.73;56.13
28344;BME280;15597;50.914;6.638;2023-04-07T04:53:17;100688.06;;;12.71;56.29
28344;BME280;15597;50.914;6.638;2023-04-07T04:56:03;100687.31;;;12.68;55.96
28344;BME280;15597;50.914;6.638;2023-04-07T04:58:39;100682.91;;;12.68;56.35
28344;BME280;15597;50.914;6.638;2023-04-07T05:01:13;100686.44;;;12.67;56.04
28344;BME280;15597;50.914;6.638;2023-04-07T05:03:44;100689.06;;;12.67;56.24
28344;BME280;15597;50.914;6.638;2023-04-07T05:06:16;100690.84;;;12.67;56.23
28344;BME280;15597;50.914;6.638;2023-04-07T05:08:43;100687.34;;;12.66;56.13
28344;BME280;15597;50.914;6.638;2023-04-07T05:11:10;100694.38;;;12.66;56.12
28344;BME280;15597;50.914;6.638;2023-04-07T05:13:36;100696.13;;;12.65;56.08
28344;BME280;15597;50.914;6.638;2023-04-07T05:16:03;100701.38;;;12.65;56.00
28344;BME280;15597;50.914;6.638;2023-04-07T05:18:29;100701.28;;;12.68;56.07
28344;BME280;15597;50.914;6.638;2023-04-07T05:20:56;100703.91;;;12.68;56.19
28344;BME280;15597;50.914;6.638;2023-04-07T05:23:24;100706.53;;;12.70;55.65
28344;BME280;15597;50.914;6.638;2023-04-07T05:25:50;100713.53;;;12.69;55.51
28344;BME280;15597;50.914;6.638;2023-04-07T05:28:17;100712.63;;;12.70;55.86
28344;BME280;15597;50.914;6.638;2023-04-07T05:30:43;100711.72;;;12.71;55.39
28344;BME280;15597;50.914;6.638;2023-04-07T05:33:08;100716.09;;;12.73;55.66
28344;BME280;15597;50.914;6.638;2023-04-07T05:35:43;100717.81;;;12.74;55.82
28344;BME280;15597;50.914;6.638;2023-04-07T05:38:10;100709.94;;;12.74;55.85
28344;BME280;15597;50.914;6.638;2023-04-07T05:40:37;100707.31;;;12.74;55.74
28344;BME280;15597;50.914;6.638;2023-04-07T05:43:03;100710.84;;;12.73;55.83
28344;BME280;15597;50.914;6.638;2023-04-07T05:45:30;100718.72;;;12.73;55.70
28344;BME280;15597;50.914;6.638;2023-04-07T05:47:56;100717.81;;;12.74;55.97
28344;BME280;15597;50.914;6.638;2023-04-07T05:50:29;100726.50;;;12.76;55.91
28344;BME280;15597;50.914;6.638;2023-04-07T05:52:57;100730.03;;;12.75;56.07
28344;BME280;15597;50.914;6.638;2023-04-07T05:55:25;100733.47;;;12.77;55.85
28344;BME280;15597;50.914;6.638;2023-04-07T05:57:51;100726.50;;;12.76;55.85
28344;BME280;15597;50.914;6.638;2023-04-07T06:00:20;100733.47;;;12.77;55.86
28344;BME280;15597;50.914;6.638;2023-04-07T06:02:56;100729.13;;;12.76;55.60
28344;BME280;15597;50.914;6.638;2023-04-07T06:05:22;100731.75;;;12.76;55.52
28344;BME280;15597;50.914;6.638;2023-04-07T06:07:51;100735.28;;;12.75;55.87
28344;BME280;15597;50.914;6.638;2023-04-07T06:10:17;100742.28;;;12.74;55.84
28344;BME280;15597;50.914;6.638;2023-04-07T06:12:44;100743.19;;;12.73;55.81
28344;BME280;15597;50.914;6.638;2023-04-07T06:15:09;100746.75;;;12.70;55.85
28344;BME280;15597;50.914;6.638;2023-04-07T06:17:36;100754.63;;;12.70;55.57
28344;BME280;15597;50.914;6.638;2023-04-07T06:20:02;100753.78;;;12.70;56.07
28344;BME280;15597;50.914;6.638;2023-04-07T06:22:31;100754.69;;;12.67;56.35
28344;BME280;15597;50.914;6.638;2023-04-07T06:24:57;100752.97;;;12.66;56.06
28344;BME280;15597;50.914;6.638;2023-04-07T06:27:23;100756.50;;;12.65;56.19
28344;BME280;15597;50.914;6.638;2023-04-07T06:29:49;100764.38;;;12.65;56.01
28344;BME280;15597;50.914;6.638;2023-04-07T06:32:14;100765.22;;;12.67;55.84
28344;BME280;15597;50.914;6.638;2023-04-07T06:34:41;100758.16;;;12.69;55.89
28344;BME280;15597;50.914;6.638;2023-04-07T06:37:07;100771.28;;;12.69;55.51
28344;BME280;15597;50.914;6.638;2023-04-07T06:39:33;100773.00;;;12.70;56.02
28344;BME280;15597;50.914;6.638;2023-04-07T06:41:58;100773.00;;;12.70;55.93
28344;BME280;15597;50.914;6.638;2023-04-07T06:44:26;100773.88;;;12.71;55.96
28344;BME280;15597;50.914;6.638;2023-04-07T06:46:51;100778.22;;;12.72;55.99
28344;BME280;15597;50.914;6.638;2023-04-07T06:49:18;100771.25;;;12.71;55.92
28344;BME280;15597;50.914;6.638;2023-04-07T06:51:43;100773.84;;;12.73;56.14
28344;BME280;15597;50.914;6.638;2023-04-07T06:54:09;100778.13;;;12.75;55.78
28344;BME280;15597;50.914;6.638;2023-04-07T06:56:42;100779.00;;;12.76;55.87
28344;BME280;15597;50.914;6.638;2023-04-07T06:59:08;100779.78;;;12.79;55.80
28344;BME280;15597;50.914;6.638;2023-04-07T07:01:33;100791.97;;;12.82;55.74
28344;BME280;15597;50.914;6.638;2023-04-07T07:03:59;100790.09;;;12.87;55.83
28344;BME280;15597;50.914;6.638;2023-04-07T07:06:27;100791.25;;;12.77;55.91
28344;BME280;15597;50.914;6.638;2023-04-07T07:08:53;100786.81;;;12.79;56.20
28344;BME280;15597;50.914;6.638;2023-04-07T07:11:19;100797.22;;;12.82;56.19
28344;BME280;15597;50.914;6.638;2023-04-07T07:13:46;100798.03;;;12.84;55.97
28344;BME280;15597;50.914;6.638;2023-04-07T07:16:12;100797.22;;;12.82;56.09
28344;BME280;15597;50.914;6.638;2023-04-07T07:18:37;100792.88;;;12.81;55.74
28344;BME280;15597;50.914;6.638;2023-04-07T07:21:03;100806.81;;;12.83;55.96
28344;BME280;15597;50.914;6.638;2023-04-07T07:23:29;100805.09;;;12.82;56.36
28344;BME280;15597;50.914;6.638;2023-04-07T07:25:54;100806.91;;;12.80;56.33
28344;BME280;15597;50.914;6.638;2023-04-07T07:28:20;100811.19;;;12.82;56.35
28344;BME280;15597;50.914;6.638;2023-04-07T07:30:46;100809.38;;;12.84;56.13
28344;BME280;15597;50.914;6.638;2023-04-07T07:33:12;100820.78;;;12.85;56.42
28344;BME280;15597;50.914;6.638;2023-04-07T07:35:38;100815.53;;;12.85;56.39
28344;BME280;15597;50.914;6.638;2023-04-07T07:38:04;100819.81;;;12.88;56.08
28344;BME280;15597;50.914;6.638;2023-04-07T07:40:30;100815.44;;;12.88;56.68
28344;BME280;15597;50.914;6.638;2023-04-07T07:42:56;100814.56;;;12.88;56.50
28344;BME280;15597;50.914;6.638;2023-04-07T07:45:22;100818.06;;;12.88;56.60
28344;BME280;15597;50.914;6.638;2023-04-07T07:47:48;100818.06;;;12.88;56.65
28344;BME280;15597;50.914;6.638;2023-04-07T07:50:13;100818.88;;;12.90;56.32
28344;BME280;15597;50.914;6.638;2023-04-07T07:52:39;100818.00;;;12.90;56.21
28344;BME280;15597;50.914;6.638;2023-04-07T07:55:05;100820.59;;;12.91;56.52
28344;BME280;15597;50.914;6.638;2023-04-07T07:57:30;100826.75;;;12.90;56.99
28344;BME280;15597;50.914;6.638;2023-04-07T07:59:56;100825.94;;;12.88;56.86
28344;BME280;15597;50.914;6.638;2023-04-07T08:02:21;100831.19;;;12.88;56.62
28344;BME280;15597;50.914;6.638;2023-04-07T08:04:50;100832.91;;;12.89;56.74
28344;BME280;15597;50.914;6.638;2023-04-07T08:07:16;100831.19;;;12.88;56.96
28344;BME280;15597;50.914;6.638;2023-04-07T08:09:41;100839.91;;;12.90;57.01
28344;BME280;15597;50.914;6.638;2023-04-07T08:12:07;100832.91;;;12.89;56.79
28344;BME280;15597;50.914;6.638;2023-04-07T08:14:32;100837.25;;;12.90;56.21
28344;BME280;15597;50.914;6.638;2023-04-07T08:16:58;100843.38;;;12.91;56.51
28344;BME280;15597;50.914;6.638;2023-04-07T08:19:23;100844.25;;;12.91;56.40
28344;BME280;15597;50.914;6.638;2023-04-07T08:21:49;100848.59;;;12.92;56.73
28344;BME280;15597;50.914;6.638;2023-04-07T08:24:15;100849.44;;;12.93;56.84
28344;BME280;15597;50.914;6.638;2023-04-07T08:26:40;100850.22;;;12.96;56.47
28344;BME280;15597;50.914;6.638;2023-04-07T08:29:06;100855.41;;;12.99;56.62
28344;BME280;15597;50.914;6.638;2023-04-07T08:31:31;100857.03;;;13.04;56.63
28344;BME280;15597;50.914;6.638;2023-04-07T08:33:57;100857.84;;;13.06;57.04
28344;BME280;15597;50.914;6.638;2023-04-07T08:36:24;100860.41;;;13.07;56.56
28344;BME280;15597;50.914;6.638;2023-04-07T08:38:49;100857.78;;;13.07;56.46
28344;BME280;15597;50.914;6.638;2023-04-07T08:41:29;100857.88;;;13.04;56.61
28344;BME280;15597;50.914;6.638;2023-04-07T08:43:59;100866.59;;;13.06;56.72
28344;BME280;15597;50.914;6.638;2023-04-07T08:46:25;100867.38;;;13.10;56.51
28344;BME280;15597;50.914;6.638;2023-04-07T08:48:54;100865.56;;;13.12;56.49
28344;BME280;15597;50.914;6.638;2023-04-07T08:51:29;100874.25;;;13.14;56.95
28344;BME280;15597;50.914;6.638;2023-04-07T08:54:09;100872.47;;;13.16;56.86
28344;BME280;15597;50.914;6.638;2023-04-07T08:56:37;100871.47;;;13.20;56.36
28344;BME280;15597;50.914;6.638;2023-04-07T08:59:06;100875.81;;;13.21;56.76
28344;BME280;15597;50.914;6.638;2023-04-07T09:01:33;100882.00;;;13.19;56.69
28344;BME280;15597;50.914;6.638;2023-04-07T09:04:03;100886.41;;;13.18;56.55
28344;BME280;15597;50.914;6.638;2023-04-07T09:06:30;100881.16;;;13.18;56.61
28344;BME280;15597;50.914;6.638;2023-04-07T09:08:57;100876.75;;;13.19;56.52
28344;BME280;15597;50.914;6.638;2023-04-07T09:11:22;100877.63;;;13.19;56.54
28344;BME280;15597;50.914;6.638;2023-04-07T09:13:49;100884.69;;;13.17;56.46
28344;BME280;15597;50.914;6.638;2023-04-07T09:16:15;100883.81;;;13.17;56.86
28344;BME280;15597;50.914;6.638;2023-04-07T09:18:41;100881.19;;;13.17;56.90
28344;BME280;15597;50.914;6.638;2023-04-07T09:21:07;100896.94;;;13.18;56.97
28344;BME280;15597;50.914;6.638;2023-04-07T09:23:37;100896.94;;;13.18;56.94
28344;BME280;15597;50.914;6.638;2023-04-07T09:26:26;100894.31;;;13.17;56.98
28344;BME280;15597;50.914;6.638;2023-04-07T09:31:18;100892.44;;;13.22;56.97
28344;BME280;15597;50.914;6.638;2023-04-07T09:33:48;100890.63;;;13.24;57.33
28344;BME280;15597;50.914;6.638;2023-04-07T09:36:14;100888.84;;;13.26;57.31
28344;BME280;15597;50.914;6.638;2023-04-07T09:38:42;100892.28;;;13.28;57.10
28344;BME280;15597;50.914;6.638;2023-04-07T09:41:13;100895.84;;;13.25;57.20
28344;BME280;15597;50.914;6.638;2023-04-07T09:43:43;100893.22;;;13.25;56.82
28344;BME280;15597;50.914;6.638;2023-04-07T09:46:12;100899.28;;;13.29;56.95
28344;BME280;15597;50.914;6.638;2023-04-07T09:48:38;100892.19;;;13.31;56.78
28344;BME280;15597;50.914;6.638;2023-04-07T09:51:14;100891.31;;;13.30;57.35
28344;BME280;15597;50.914;6.638;2023-04-07T09:56:12;100895.59;;;13.35;56.67
28344;BME280;15597;50.914;6.638;2023-04-07T09:58:38;100896.41;;;13.37;56.54
28344;BME280;15597;50.914;6.638;2023-04-07T10:01:09;100896.41;;;13.37;56.73
28344;BME280;15597;50.914;6.638;2023-04-07T10:03:36;100888.44;;;13.40;56.56
28344;BME280;15597;50.914;6.638;2023-04-07T10:06:02;100894.53;;;13.42;56.45
28344;BME280;15597;50.914;6.638;2023-04-07T10:08:31;100904.97;;;13.45;56.46
28344;BME280;15597;50.914;6.638;2023-04-07T10:10:58;100900.59;;;13.46;56.74
28344;BME280;15597;50.914;6.638;2023-04-07T10:13:27;100897.00;;;13.48;56.38
28344;BME280;15597;50.914;6.638;2023-04-07T10:15:53;100908.25;;;13.53;56.62
28344;BME280;15597;50.914;6.638;2023-04-07T10:18:20;100902.97;;;13.53;56.36
28344;BME280;15597;50.914;6.638;2023-04-07T10:20:48;100900.41;;;13.52;56.01
28344;BME280;15597;50.914;6.638;2023-04-07T10:23:24;100901.34;;;13.49;56.42
28344;BME280;15597;50.914;6.638;2023-04-07T10:25:51;100906.50;;;13.52;56.44
28344;BME280;15597;50.914;6.638;2023-04-07T10:28:20;100902.97;;;13.53;56.32
28344;BME280;15597;50.914;6.638;2023-04-07T10:30:47;100913.59;;;13.50;56.03
28344;BME280;15597;50.914;6.638;2023-04-07T10:33:14;100914.50;;;13.49;56.02
28344;BME280;15597;50.914;6.638;2023-04-07T10:36:05;100915.56;;;13.42;55.72
28344;BME280;15597;50.914;6.638;2023-04-07T10:38:31;100914.66;;;13.43;55.95
28344;BME280;15597;50.914;6.638;2023-04-07T10:40:58;100915.47;;;13.45;56.09
28344;BME280;15597;50.914;6.638;2023-04-07T10:43:39;100920.75;;;13.45;56.42
28344;BME280;15597;50.914;6.638;2023-04-07T10:46:08;100913.59;;;13.50;56.33
28344;BME280;15597;50.914;6.638;2023-04-07T10:48:37;100917.03;;;13.52;55.84
28344;BME280;15597;50.914;6.638;2023-04-07T10:53:30;100918.66;;;13.56;56.04
28344;BME280;15597;50.914;6.638;2023-04-07T10:55:56;100922.09;;;13.58;55.66
28344;BME280;15597;50.914;6.638;2023-04-07T10:58:26;100922.09;;;13.58;56.02
28344;BME280;15597;50.914;6.638;2023-04-07T11:03:28;100923.19;;;13.51;56.35
28344;BME280;15597;50.914;6.638;2023-04-07T11:06:10;100925.81;;;13.51;56.26
28344;BME280;15597;50.914;6.638;2023-04-07T11:08:39;100923.91;;;13.56;56.20
28344;BME280;15597;50.914;6.638;2023-04-07T11:11:07;100928.34;;;13.56;55.80
28344;BME280;15597;50.914;6.638;2023-04-07T11:13:43;100932.81;;;13.52;55.99
28344;BME280;15597;50.914;6.638;2023-04-07T11:16:14;100931.97;;;13.52;56.44
28344;BME280;15597;50.914;6.638;2023-04-07T11:18:46;100927.53;;;13.52;56.15
28344;BME280;15597;50.914;6.638;2023-04-07T11:21:18;100938.94;;;13.53;56.14
28344;BME280;15597;50.914;6.638;2023-04-07T11:23:47;100935.44;;;13.52;56.03
28344;BME280;15597;50.914;6.638;2023-04-07T11:26:14;100937.16;;;13.53;55.78
28344;BME280;15597;50.914;6.638;2023-04-07T11:28:50;100938.94;;;13.53;56.21
28344;BME280;15597;50.914;6.638;2023-04-07T11:31:29;100935.41;;;13.54;56.05
28344;BME280;15597;50.914;6.638;2023-04-07T11:34:00;100944.03;;;13.57;56.12
28344;BME280;15597;50.914;6.638;2023-04-07T11:38:55;100950.13;;;13.59;55.87
28344;BME280;15597;50.914;6.638;2023-04-07T11:41:22;100947.50;;;13.59;55.81
28344;BME280;15597;50.914;6.638;2023-04-07T11:43:48;100951.00;;;13.60;56.28
28344;BME280;15597;50.914;6.638;2023-04-07T11:46:18;100946.59;;;13.61;55.93
28344;BME280;15597;50.914;6.638;2023-04-07T11:48:44;100956.53;;;13.51;56.27
28344;BME280;15597;50.914;6.638;2023-04-07T11:51:17;100960.91;;;13.50;56.32
28344;BME280;15597;50.914;6.638;2023-04-07T11:53:44;100959.09;;;13.52;56.22
28344;BME280;15597;50.914;6.638;2023-04-07T11:56:12;100968.75;;;13.52;55.97
28344;BME280;15597;50.914;6.638;2023-04-07T11:58:49;100967.03;;;13.51;55.75
28344;BME280;15597;50.914;6.638;2023-04-07T12:01:15;100965.22;;;13.53;56.19
28344;BME280;15597;50.914;6.638;2023-04-07T12:04:01;100967.88;;;13.51;56.00
28344;BME280;15597;50.914;6.638;2023-04-07T12:06:34;100969.59;;;13.52;55.99
28344;BME280;15597;50.914;6.638;2023-04-07T12:09:00;100966.00;;;13.56;55.92
28344;BME280;15597;50.914;6.638;2023-04-07T12:11:27;100974.69;;;13.58;55.80
28344;BME280;15597;50.914;6.638;2023-04-07T12:13:53;100974.59;;;13.62;56.06
28344;BME280;15597;50.914;6.638;2023-04-07T12:16:22;100976.34;;;13.63;55.86
28344;BME280;15597;50.914;6.638;2023-04-07T12:18:48;100983.22;;;13.67;56.16
28344;BME280;15597;50.914;6.638;2023-04-07T12:21:16;100972.63;;;13.70;55.78
28344;BME280;15597;50.914;6.638;2023-04-07T12:23:42;100976.94;;;13.72;55.85
28344;BME280;15597;50.914;6.638;2023-04-07T12:26:07;100979.44;;;13.77;55.69
28344;BME280;15597;50.914;6.638;2023-04-07T12:28:35;100984.56;;;13.82;55.83
28344;BME280;15597;50.914;6.638;2023-04-07T12:31:01;100980.09;;;13.85;55.93
28344;BME280;15597;50.914;6.638;2023-04-07T12:33:27;100983.50;;;13.89;55.56
28344;BME280;15597;50.914;6.638;2023-04-07T12:35:52;100989.63;;;13.90;55.42
28344;BME280;15597;50.914;6.638;2023-04-07T12:38:18;100987.91;;;13.88;55.19
28344;BME280;15597;50.914;6.638;2023-04-07T12:40:43;100987.03;;;13.88;55.68
28344;BME280;15597;50.914;6.638;2023-04-07T12:43:09;100991.34;;;13.91;56.20
28344;BME280;15597;50.914;6.638;2023-04-07T12:45:35;100985.13;;;13.93;55.35
28344;BME280;15597;50.914;6.638;2023-04-07T12:48:00;100991.16;;;13.97;55.43
28344;BME280;15597;50.914;6.638;2023-04-07T12:50:26;100992.91;;;13.98;55.55
28344;BME280;15597;50.914;6.638;2023-04-07T12:52:53;100993.63;;;14.03;55.82
28344;BME280;15597;50.914;6.638;2023-04-07T12:55:19;100992.66;;;14.06;55.52
28344;BME280;15597;50.914;6.638;2023-04-07T12:57:45;100988.22;;;14.08;55.89
28344;BME280;15597;50.914;6.638;2023-04-07T13:00:12;100990.00;;;14.07;55.21
28344;BME280;15597;50.914;6.638;2023-04-07T13:02:38;100994.34;;;14.08;55.18
28344;BME280;15597;50.914;6.638;2023-04-07T13:05:04;100990.91;;;14.06;55.72
28344;BME280;15597;50.914;6.638;2023-04-07T13:07:31;100997.09;;;14.03;55.58
28344;BME280;15597;50.914;6.638;2023-04-07T13:09:59;100986.63;;;14.02;55.26
28344;BME280;15597;50.914;6.638;2023-04-07T13:12:25;100988.34;;;14.03;55.99
28344;BME280;15597;50.914;6.638;2023-04-07T13:14:50;100985.63;;;14.06;55.57